Last 30 Days

O'Neill Sea Odyssey

Daily Data | America/Los_Angeles
as of 1/19/22 12:53 PM PST
Date Daily Max Temp (°F) Time of Max Temp Daily Min Temp (°F) Time of Min Temp Daily Rain (In) Seasonal Rainfall (In) Wind Spd (mph) Daily Max Wind (mph) Time of Max Wind Max Wind Dir (°) Dew Pt (°F) Max RH (%) Min RH (%) Bat Volt Min Day (V)
1/18/22 56.3 1655 45.7 0341 0.00 14.05 4.0 10.5 1157 SW | 219 46.7 95 77 13.4
1/17/22 60.0 1418 48.9 0445 0.01 14.05 3.2 11.6 1303 WSW | 242 47.6 93 62 13.4
1/16/22 69.4 1354 50.4 0738 0.00 14.04 3.6 14.9 0311 N | 350 45.7 85 32 13.3
1/15/22 68.0 1144 44.3 0515 0.00 14.04 4.3 14.2 2130 N | 355 41.6 82 30 13.4
1/14/22 63.4 1538 42.1 0554 0.00 14.04 3.6 9.9 1029 SE | 127 43.2 97 48 13.4
1/13/22 57.0 1517 45.7 0713 0.00 14.04 3.3 15.8 0131 NNW | 331 43.1 91 55 13.4
1/12/22 65.7 1325 43.0 0545 0.00 14.04 4.0 13.2 0554 NNE | 14 41.8 84 37 13.3
1/11/22 63.4 1522 41.9 0702 0.00 14.04 4.3 11.4 2141 NNW | 347 41.5 84 34 13.4
1/10/22 68.5 1343 45.5 0746 0.00 14.04 4.1 12.1 0027 N | 351 42.3 89 26 13.3
1/9/22 65.8 1459 39.6 0715 0.00 14.04 4.7 18.4 1555 SW | 235 42.2 95 36 13.3
1/8/22 57.4 1628 42.4 0736 0.00 14.04 4.8 11.8 0525 N | 1 44.9 96 69 13.4
1/7/22 55.2 1020 46.4 2359 0.01 14.04 2.9 10.7 2152 N | 353 48.9 98 78 13.5
1/6/22 57.7 1539 45.6 0727 0.00 14.03 4.1 13.6 1327 SW | 235 49.7 100 82 13.4
1/5/22 55.7 1535 45.1 0758 0.01 14.03 3.2 10.5 1241 SW | 217 48.8 100 88 13.4
1/4/22 54.8 1549 47.4 2333 0.23 14.02 3.3 13.8 1556 SW | 232 50.4 99 92 13.4
1/3/22 53.7 2231 44.5 0327 0.27 13.79 4.7 22.1 1708 S | 184 45.8 96 76 13.6
1/2/22 55.7 1428 33.7 0736 0.00 13.52 4.5 10.3 1309 SE | 135 37.0 92 46 13.4
1/1/22 53.5 1507 36.9 0804 0.00 13.52 5.2 21.3 0027 NNW | 331 35.3 92 35 13.4
12/31/21 55.3 1503 39.8 0806 0.00 13.52 5.2 23.4 2314 NNW | 346 39.0 93 49 13.4
12/30/21 56.0 1640 43.4 0738 0.00 13.52 6.1 17.1 2001 NNW | 347 43.5 95 63 13.4
12/29/21 53.1 1351 45.9 0119 1.09 13.52 7.2 26.5 1358 SSW | 205 46.6 97 80 13.6
12/28/21 50.0 1603 40.0 0104 0.04 12.43 3.8 15.6 2325 ESE | 119 40.9 95 69 13.5
12/27/21 52.9 1443 40.5 2354 0.67 12.39 6.9 36.6 1143 W | 272 42.5 95 55 13.5
12/26/21 52.1 2320 38.0 0742 0.18 11.72 8.5 32.9 2334 SW | 216 41.4 97 61 13.5
12/25/21 54.0 1307 45.1 2359 0.61 11.54 12.8 39.2 1113 S | 180 45.8 95 75 13.6
12/24/21 55.6 1342 49.4 2343 0.24 10.93 6.4 26.5 1005 NNW | 343 46.8 99 52 13.5
12/23/21 58.0 0037 53.6 1933 0.68 10.69 11.4 37.7 0615 SW | 232 54.5 99 88 13.5
12/22/21 57.6 2325 47.9 0436 0.37 10.01 5.4 23.7 2128 S | 182 51.7 98 84 13.5
12/21/21 59.2 1459 40.5 0742 0.14 9.64 4.7 14.2 2211 N | 1 43.0 93 45 13.4
12/20/21 56.2 1532 41.5 0432 0.00 9.50 6.0 20.8 0037 S | 188 42.5 94 60 13.5
Max 69.4 - 53.6 - 1.09 - 12.8 39.2 - - 54.5 100 92 13.6
Avg - - - - - - 5.2 - - - 44.5 - - -
Min 50.0 - 33.7 - 0.00 - 2.9 9.9 - - 35.3 82 26 13.3